This is the latest recevied weather packets stored in our database for station/object KC1OEK-13. If no packets are shown the sender has not sent any weather packets the latest 10 day(s).
| Time | Temp. | Humidity | Pressure | Rain* | Wind** | Luminosity | Snow |
|---|---|---|---|---|---|---|---|
| 1787670811 | 23.33° C | 64% | 1017.8 hPa | 0 mm | - | 758 W/m² | - |
| 1787670511 | 23.33° C | 63% | 1017.8 hPa | 0 mm | - | 578 W/m² | - |
| 1787670205 | 22.78° C | 65% | 1017.8 hPa | 0 mm | - | 654 W/m² | - |
| 1787669904 | 22.22° C | 71% | 1017.7 hPa | 0 mm | - | 659 W/m² | - |
| 1787669600 | 23.33° C | 68% | 1017.8 hPa | 0 mm | - | 226 W/m² | - |
| 1787669295 | 22.22° C | 69% | 1018 hPa | 0 mm | - | 665 W/m² | - |
| 1787668990 | 22.78° C | 69% | 1018 hPa | 0 mm | - | 525 W/m² | - |
| 1787668687 | 22.22° C | 69% | 1017.9 hPa | 0 mm | - | 599 W/m² | - |
| 1787668383 | 21.67° C | 71% | 1018 hPa | 0 mm | - | 544 W/m² | - |
| 1787668082 | 21.67° C | 72% | 1018.1 hPa | 0 mm | - | 116 W/m² | - |
| 1787667778 | 22.78° C | 68% | 1017.9 hPa | 0 mm | - | 142 W/m² | - |
| 1787667473 | 22.78° C | 67% | 1017.9 hPa | 0 mm | - | 600 W/m² | - |
| 1787667168 | 21.67° C | 71% | 1017.7 hPa | 0 mm | - | 526 W/m² | - |
| 1787666863 | 21.67° C | 71% | 1017.9 hPa | 0 mm | - | 518 W/m² | - |
| 1787666558 | 21.11° C | 74% | 1017.9 hPa | 0 mm | - | 381 W/m² | - |
| 1787666253 | 21.67° C | 75% | 1017.8 hPa | 0 mm | - | 399 W/m² | - |
| 1787665949 | 21.67° C | 71% | 1017.8 hPa | 0 mm | - | 354 W/m² | - |
| 1787665639 | 21.11° C | 78% | 1017.7 hPa | 0 mm | - | 451 W/m² | - |
| 1787665338 | 21.11° C | 75% | 1017.9 hPa | 0 mm | - | 360 W/m² | - |
| 1787665035 | 20.56° C | 78% | 1017.7 hPa | 0 mm | - | 428 W/m² | - |
| 1787664731 | 20° C | 81% | 1017.6 hPa | 0 mm | - | 299 W/m² | - |
| 1787664430 | 20° C | 81% | 1017.8 hPa | 0 mm | - | 408 W/m² | - |
| 1787664126 | 20° C | 80% | 1017.8 hPa | 0 mm | - | 389 W/m² | - |
| 1787663825 | 19.44° C | 83% | 1017.8 hPa | 0 mm | - | 365 W/m² | - |
| 1787663521 | 19.44° C | 82% | 1017.7 hPa | 0 mm | - | 376 W/m² | - |
* Rain latest hour (hover to see other rain measurements)
** Current wind speed in m/s (hover to see current wind gust speed)